Página principal
METAR-TAF:

METAR-TAF

Aeroportos :

Ardabil, Irão

latitude: 38-19-35N, longitude: 048-25-28E, altura: 1315 m

Observação actual do tempo

O boletim foi feito há 50 minutos, às 14:53 UTC
Vento 16 kt de este
Temperatura 5°C
Humidade 93%
Pressão 1014 hPa
Visibilidade: 0100 m
nevoeiro

METAR: OITL 211453Z 08016KT 0100 R15/0700D R33/0250N FG VV001 05/04 Q1014

Hora: 19:13 (15:43 UTC)


TAF: em falta

Observações e previsões do tempo de mais de 4000 aeroportos (mensagens METAR e TAF).

As estações disponíveis são os pontos amarelos e vermelhos sobre o mapa.

Mova o rato sobre o mapa para ver o nome da estação.

Depois clique no ponto para visualizar as observações e previsões meteorológicas.

Para alterar o mapa : clique nos botões verdes com uma cruz preta para aumentar o zoom; no botão verde com uma pitada de zoom; ou nas setas verdes para mapas adjacentes.


METAR-TAF: